createdAt,value
2022-10-17T00:00:12.389Z,7.68
2022-10-17T00:02:39.025Z,7.68
2022-10-17T00:05:05.952Z,7.43
2022-10-17T00:07:32.658Z,8.13
2022-10-17T00:09:59.920Z,7.40
2022-10-17T00:12:26.633Z,8.07
2022-10-17T00:14:53.267Z,7.88
2022-10-17T00:17:21.567Z,8.13
2022-10-17T00:19:48.432Z,8.52
2022-10-17T00:22:15.031Z,8.48
2022-10-17T00:24:41.704Z,8.55
2022-10-17T00:27:08.424Z,9.15
2022-10-17T00:29:35.081Z,8.88
2022-10-17T00:32:01.776Z,8.40
2022-10-17T00:34:31.616Z,9.30
2022-10-17T00:36:58.654Z,8.70
2022-10-17T00:39:25.494Z,8.65
2022-10-17T00:41:52.226Z,8.20
2022-10-17T00:44:56.218Z,8.73
2022-10-17T00:47:23.105Z,8.35
2022-10-17T00:49:51.466Z,8.48
2022-10-17T00:52:21.537Z,7.85
2022-10-17T00:54:51.969Z,8.25
2022-10-17T00:57:18.798Z,8.63
2022-10-17T00:59:49.186Z,8.77
2022-10-17T01:02:18.595Z,7.72
2022-10-17T01:04:47.953Z,7.93
2022-10-17T01:07:17.066Z,8.10
2022-10-17T01:09:46.874Z,7.93
2022-10-17T01:12:20.476Z,7.72
2022-10-17T01:14:58.138Z,7.13
2022-10-17T01:17:33.526Z,7.32
2022-10-17T01:20:26.526Z,7.00
2022-10-17T01:23:07.019Z,7.38
2022-10-17T01:25:43.008Z,7.47
2022-10-17T01:28:21.935Z,7.50
2022-10-17T01:31:12.636Z,8.30
2022-10-17T01:33:47.504Z,7.63
2022-10-17T01:36:23.972Z,8.05
2022-10-17T01:38:57.597Z,8.15
2022-10-17T01:41:35.713Z,8.32
2022-10-17T01:44:09.348Z,8.25
2022-10-17T01:46:39.071Z,9.20
2022-10-17T01:49:08.092Z,9.07
2022-10-17T01:51:39.447Z,9.40
2022-10-17T01:54:12.407Z,9.68
2022-10-17T01:56:41.615Z,9.02
2022-10-17T01:59:14.532Z,8.50
2022-10-17T02:01:44.984Z,9.57
2022-10-17T02:04:11.764Z,7.88
2022-10-17T02:06:38.728Z,8.82
2022-10-17T02:09:17.811Z,9.10
2022-10-17T02:11:52.648Z,8.82
2022-10-17T02:14:30.363Z,8.32
2022-10-17T02:17:09.113Z,8.30
2022-10-17T02:19:47.164Z,8.57
2022-10-17T02:22:25.072Z,8.57
2022-10-17T02:25:00.558Z,8.43
2022-10-17T02:27:40.831Z,8.98
2022-10-17T02:30:12.767Z,7.65
2022-10-17T02:32:50.425Z,7.50
2022-10-17T02:35:20.522Z,7.83
2022-10-17T02:37:47.878Z,8.30
2022-10-17T02:40:17.681Z,7.25
2022-10-17T02:42:46.187Z,7.47
2022-10-17T02:45:14.604Z,7.90
2022-10-17T02:47:50.661Z,7.70
2022-10-17T02:50:21.177Z,7.05
2022-10-17T02:52:54.646Z,7.63
2022-10-17T02:55:29.326Z,7.72
2022-10-17T02:58:04.395Z,7.80
2022-10-17T03:00:32.305Z,7.78
2022-10-17T03:03:00.285Z,7.20
2022-10-17T03:05:28.504Z,7.07
2022-10-17T03:07:56.355Z,8.10
2022-10-17T03:10:23.321Z,7.10
2022-10-17T03:12:50.079Z,6.85
2022-10-17T03:15:16.769Z,6.70
2022-10-17T03:20:11.789Z,6.97
2022-10-17T03:22:38.424Z,7.25
2022-10-17T03:25:05.510Z,7.72
2022-10-17T03:27:32.379Z,7.35
2022-10-17T03:29:59.239Z,6.88
2022-10-17T03:32:25.806Z,6.82
2022-10-17T03:34:52.596Z,7.22
2022-10-17T03:37:20.668Z,7.20
2022-10-17T03:39:47.319Z,7.07
2022-10-17T03:42:13.934Z,7.30
2022-10-17T03:44:40.591Z,7.32
2022-10-17T03:47:09.252Z,7.28
2022-10-17T03:49:38.805Z,7.38
2022-10-17T03:52:05.416Z,7.45
2022-10-17T03:54:33.489Z,7.22
2022-10-17T03:57:00.231Z,7.07
2022-10-17T03:59:26.998Z,6.80
2022-10-17T04:01:53.610Z,7.03
2022-10-17T04:04:20.238Z,7.18
2022-10-17T04:06:46.883Z,6.72
2022-10-17T04:09:13.550Z,6.85
2022-10-17T04:11:42.034Z,7.43
2022-10-17T04:14:10.698Z,6.80
2022-10-17T04:16:38.623Z,6.63
2022-10-17T04:19:05.421Z,6.17
2022-10-17T04:21:32.335Z,6.35
2022-10-17T04:24:00.620Z,5.85
2022-10-17T04:26:28.458Z,6.80
2022-10-17T04:28:56.500Z,6.40
2022-10-17T04:31:23.235Z,5.63
2022-10-17T04:33:50.676Z,6.38
2022-10-17T04:36:19.681Z,6.60
2022-10-17T04:38:46.723Z,6.35
2022-10-17T04:41:15.546Z,5.93
2022-10-17T04:43:45.524Z,6.45
2022-10-17T04:46:16.743Z,6.57
2022-10-17T04:48:43.519Z,6.20
2022-10-17T04:51:12.807Z,6.45
2022-10-17T04:53:40.366Z,6.07
2022-10-17T04:56:11.950Z,6.45
2022-10-17T04:58:39.805Z,6.38
2022-10-17T05:01:06.840Z,6.37
2022-10-17T05:03:36.219Z,6.13
2022-10-17T05:06:07.779Z,5.55
2022-10-17T05:08:34.961Z,6.30
2022-10-17T05:11:02.493Z,5.93
2022-10-17T05:13:29.700Z,6.30
2022-10-17T05:15:59.775Z,5.90
2022-10-17T05:18:26.651Z,6.47
2022-10-17T05:20:54.847Z,6.65
2022-10-17T05:23:21.592Z,6.95
2022-10-17T05:25:48.218Z,6.60
2022-10-17T05:28:14.910Z,5.93
2022-10-17T05:30:41.515Z,6.60
2022-10-17T05:33:08.198Z,6.03
2022-10-17T05:35:34.818Z,6.40
2022-10-17T05:38:02.848Z,6.80
2022-10-17T05:40:29.491Z,7.18
2022-10-17T05:42:56.175Z,6.15
2022-10-17T05:45:23.245Z,6.28
2022-10-17T05:47:49.847Z,6.70
2022-10-17T05:50:16.556Z,6.95
2022-10-17T05:52:45.188Z,7.00
2022-10-17T05:55:15.252Z,6.57
2022-10-17T05:57:41.845Z,7.47
2022-10-17T06:00:09.898Z,6.43
2022-10-17T06:02:36.590Z,6.63
2022-10-17T06:05:03.586Z,7.03
2022-10-17T06:07:30.160Z,6.55
2022-10-17T06:09:58.999Z,6.72
2022-10-17T06:12:27.794Z,6.10
2022-10-17T06:14:54.528Z,6.15
2022-10-17T06:17:21.392Z,6.70
2022-10-17T06:19:48.190Z,6.60
2022-10-17T06:22:15.051Z,6.70
2022-10-17T06:24:42.465Z,6.57
2022-10-17T06:27:11.091Z,6.80
2022-10-17T06:29:40.430Z,6.47
2022-10-17T06:32:09.893Z,6.03
2022-10-17T06:34:39.402Z,6.45
2022-10-17T06:37:06.231Z,6.80
2022-10-17T06:39:35.060Z,7.00
2022-10-17T06:42:02.420Z,7.05
2022-10-17T06:44:32.003Z,6.85
2022-10-17T06:47:00.965Z,7.20
2022-10-17T06:49:28.517Z,7.43
2022-10-17T06:51:55.104Z,7.50
2022-10-17T06:54:21.841Z,7.30
2022-10-17T06:56:48.491Z,6.70
2022-10-17T06:59:15.683Z,6.65
2022-10-17T07:01:46.134Z,7.10
2022-10-17T07:04:15.168Z,6.15
2022-10-17T07:06:41.817Z,6.70
2022-10-17T07:09:08.810Z,6.53
2022-10-17T07:11:35.723Z,7.10
2022-10-17T07:14:02.733Z,6.70
2022-10-17T07:16:29.555Z,6.28
2022-10-17T07:18:56.777Z,6.25
2022-10-17T07:21:24.817Z,6.15
2022-10-17T07:23:51.557Z,6.75
2022-10-17T07:26:19.097Z,6.38
2022-10-17T07:28:47.562Z,6.65
2022-10-17T07:31:16.404Z,6.43
2022-10-17T07:36:09.878Z,5.95
2022-10-17T07:38:38.443Z,6.38
2022-10-17T07:41:07.516Z,6.57
2022-10-17T07:43:34.864Z,7.00
2022-10-17T07:46:02.203Z,6.82
2022-10-17T07:48:29.075Z,7.00
2022-10-17T07:50:55.847Z,7.03
2022-10-17T07:53:22.846Z,7.22
2022-10-17T07:55:51.412Z,6.88
2022-10-17T07:58:18.611Z,6.93
2022-10-17T08:00:48.425Z,6.40
2022-10-17T08:03:15.260Z,6.93
2022-10-17T08:05:42.098Z,7.00
2022-10-17T08:08:08.751Z,7.35
2022-10-17T08:10:35.424Z,6.72
2022-10-17T08:13:03.812Z,7.43
2022-10-17T08:15:32.186Z,6.65
2022-10-17T08:17:59.724Z,7.00
2022-10-17T08:20:26.700Z,7.70
2022-10-17T08:22:53.823Z,6.45
2022-10-17T08:25:21.401Z,7.35
2022-10-17T08:27:48.374Z,8.45
2022-10-17T08:30:17.645Z,7.90
2022-10-17T08:32:44.362Z,7.95
2022-10-17T08:35:11.304Z,8.05
2022-10-17T08:37:39.171Z,7.40
2022-10-17T08:40:07.639Z,7.73
2022-10-17T08:42:56.366Z,7.90
2022-10-17T08:45:32.728Z,7.53
2022-10-17T08:48:00.988Z,7.50
2022-10-17T08:50:35.784Z,7.60
2022-10-17T08:53:09.018Z,7.53
2022-10-17T08:55:41.286Z,7.10
2022-10-17T08:58:14.553Z,7.82
2022-10-17T09:00:48.272Z,7.43
2022-10-17T09:03:27.850Z,6.95
2022-10-17T09:06:01.242Z,7.40
2022-10-17T09:08:42.042Z,8.00
2022-10-17T09:11:19.770Z,6.93
2022-10-17T09:14:01.501Z,6.97
2022-10-17T09:16:53.004Z,6.70
2022-10-17T09:19:23.164Z,6.57
2022-10-17T09:21:53.766Z,7.07
2022-10-17T09:24:25.753Z,6.47
2022-10-17T09:26:54.836Z,6.63
2022-10-17T09:29:24.684Z,6.13
2022-10-17T09:32:01.674Z,6.53
2022-10-17T09:34:32.438Z,7.00
2022-10-17T09:37:00.424Z,6.60
2022-10-17T09:39:32.001Z,6.45
2022-10-17T09:42:00.811Z,6.22
2022-10-17T09:47:20.379Z,5.78
2022-10-17T09:49:48.869Z,6.55
2022-10-17T09:52:17.827Z,6.15
2022-10-17T09:54:46.624Z,6.10
2022-10-17T09:57:15.523Z,6.40
2022-10-17T09:59:44.714Z,6.15
2022-10-17T10:02:21.255Z,5.95
2022-10-17T10:05:07.477Z,6.70
2022-10-17T10:07:37.373Z,5.93
2022-10-17T10:10:07.353Z,6.40
2022-10-17T10:12:36.133Z,6.10
2022-10-17T10:15:22.861Z,6.25
2022-10-17T10:17:50.905Z,5.80
2022-10-17T10:20:34.461Z,5.53
2022-10-17T10:23:14.375Z,5.57
2022-10-17T10:25:54.970Z,5.47
2022-10-17T10:28:26.254Z,5.53
2022-10-17T10:30:54.530Z,5.10
2022-10-17T10:33:25.760Z,5.43
2022-10-17T10:35:56.383Z,5.00
2022-10-17T10:38:23.650Z,5.15
2022-10-17T10:40:52.950Z,5.60
2022-10-17T10:43:27.219Z,5.40
2022-10-17T10:45:54.178Z,4.82
2022-10-17T10:48:24.625Z,5.00
2022-10-17T10:50:56.334Z,5.13
2022-10-17T10:53:35.141Z,5.10
2022-10-17T10:56:08.693Z,5.57
2022-10-17T10:58:43.524Z,5.63
2022-10-17T11:01:19.967Z,5.72
2022-10-17T11:03:57.518Z,5.88
2022-10-17T11:06:28.710Z,5.47
2022-10-17T11:09:11.000Z,5.32
2022-10-17T11:11:44.070Z,5.47
2022-10-17T11:14:16.362Z,5.05
2022-10-17T11:16:48.073Z,5.45
2022-10-17T11:19:21.147Z,5.88
2022-10-17T11:21:53.666Z,6.05
2022-10-17T11:24:25.021Z,5.63
2022-10-17T11:26:56.679Z,5.50
2022-10-17T11:29:28.211Z,6.15
2022-10-17T11:31:58.521Z,5.95
2022-10-17T11:34:30.923Z,6.43
2022-10-17T11:37:02.348Z,6.05
2022-10-17T11:39:34.052Z,6.30
2022-10-17T11:42:07.168Z,5.95
2022-10-17T11:44:36.741Z,6.10
2022-10-17T11:47:07.545Z,6.30
2022-10-17T11:49:41.075Z,6.70
2022-10-17T11:52:37.750Z,7.38
2022-10-17T11:55:16.197Z,7.13
2022-10-17T11:57:55.601Z,6.93
2022-10-17T12:00:30.495Z,7.10
2022-10-17T12:03:13.941Z,7.05
2022-10-17T12:05:48.620Z,7.28
2022-10-17T12:08:25.264Z,7.03
2022-10-17T12:10:58.068Z,6.78
2022-10-17T12:13:47.797Z,7.43
2022-10-17T12:16:45.397Z,7.07
2022-10-17T12:19:25.167Z,7.25
2022-10-17T12:21:59.002Z,6.93
2022-10-17T12:24:45.154Z,7.35
2022-10-17T12:27:32.826Z,7.82
2022-10-17T12:30:01.411Z,8.40
2022-10-17T12:32:36.809Z,6.70
2022-10-17T12:35:20.979Z,6.97
2022-10-17T12:38:03.705Z,7.35
2022-10-17T12:40:55.068Z,7.30
2022-10-17T12:43:57.270Z,6.90
2022-10-17T12:46:46.818Z,7.13
2022-10-17T12:49:41.204Z,7.18
2022-10-17T12:52:27.130Z,6.68
2022-10-17T12:55:13.985Z,7.15
2022-10-17T12:57:47.510Z,6.72
2022-10-17T13:00:22.553Z,6.78
2022-10-17T13:02:52.607Z,7.63
2022-10-17T13:05:25.543Z,7.00
2022-10-17T13:07:53.393Z,7.00
2022-10-17T13:10:23.828Z,6.80
2022-10-17T13:12:52.248Z,7.20
2022-10-17T13:15:20.225Z,7.93
2022-10-17T13:17:56.833Z,7.15
2022-10-17T13:20:30.587Z,6.68
2022-10-17T13:22:59.352Z,7.32
2022-10-17T13:25:28.207Z,7.45
2022-10-17T13:28:08.222Z,7.22
2022-10-17T13:30:36.963Z,7.32
2022-10-17T13:33:04.163Z,7.18
2022-10-17T13:35:58.789Z,7.00
2022-10-17T13:38:24.424Z,7.25
2022-10-17T13:41:01.366Z,7.25
2022-10-17T13:43:32.931Z,7.75
2022-10-17T13:46:25.641Z,7.65
2022-10-17T13:48:52.929Z,7.47
2022-10-17T13:51:20.243Z,6.95
2022-10-17T13:53:46.929Z,6.78
2022-10-17T13:56:28.353Z,7.38
2022-10-17T13:58:58.459Z,8.05
2022-10-17T14:01:27.040Z,7.95
2022-10-17T14:06:37.163Z,6.85
2022-10-17T14:09:07.683Z,8.35
2022-10-17T14:11:37.916Z,7.25
2022-10-17T14:14:07.773Z,7.97
2022-10-17T14:16:38.953Z,8.70
2022-10-17T14:19:07.027Z,8.02
2022-10-17T14:21:43.897Z,7.13
2022-10-17T14:24:26.370Z,8.23
2022-10-17T14:26:58.591Z,8.95
2022-10-17T14:29:27.283Z,8.35
2022-10-17T14:32:02.796Z,8.75
2022-10-17T14:34:33.974Z,8.52
2022-10-17T14:37:02.894Z,9.30
2022-10-17T14:39:29.914Z,9.48
2022-10-17T14:42:03.417Z,10.45
2022-10-17T14:44:33.866Z,9.82
2022-10-17T14:47:18.170Z,10.95
2022-10-17T14:49:51.438Z,10.45
2022-10-17T14:52:27.969Z,9.77
2022-10-17T14:54:55.760Z,10.77
2022-10-17T14:57:34.885Z,10.67
2022-10-17T15:00:01.659Z,9.88
2022-10-17T15:02:30.318Z,10.50
2022-10-17T15:04:57.350Z,10.48
2022-10-17T15:07:24.245Z,10.80
2022-10-17T15:09:52.839Z,10.77
2022-10-17T15:14:48.721Z,10.07
2022-10-17T15:17:18.982Z,10.93
2022-10-17T15:19:45.707Z,10.65
2022-10-17T15:22:12.526Z,11.25
2022-10-17T15:24:39.818Z,11.35
2022-10-17T15:27:13.758Z,11.10
2022-10-17T15:29:40.439Z,10.90
2022-10-17T15:32:08.420Z,11.32
2022-10-17T15:34:35.164Z,11.98
2022-10-17T15:37:02.258Z,11.23
2022-10-17T15:39:28.910Z,12.15
2022-10-17T15:41:55.519Z,11.90
2022-10-17T15:44:22.635Z,11.25
2022-10-17T15:46:49.452Z,11.65
2022-10-17T15:49:19.897Z,11.98
2022-10-17T15:51:47.752Z,12.00
2022-10-17T15:54:15.987Z,12.15
2022-10-17T15:56:43.298Z,11.85
2022-10-17T15:59:14.023Z,12.38
2022-10-17T16:01:41.478Z,12.27
2022-10-17T16:04:12.554Z,13.07
2022-10-17T16:06:40.966Z,11.18
2022-10-17T16:09:07.734Z,12.32
2022-10-17T16:11:37.461Z,12.57
2022-10-17T16:14:07.659Z,12.68
2022-10-17T16:16:34.725Z,12.02
2022-10-17T16:19:02.361Z,12.63
2022-10-17T16:21:32.515Z,12.70
2022-10-17T16:24:00.764Z,12.48
2022-10-17T16:26:28.302Z,12.60
2022-10-17T16:28:56.213Z,12.57
2022-10-17T16:31:25.159Z,13.02
2022-10-17T16:33:54.607Z,12.15
2022-10-17T16:36:21.303Z,13.25
2022-10-17T16:38:49.800Z,13.10
2022-10-17T16:41:23.584Z,12.73
2022-10-17T16:43:51.538Z,12.68
2022-10-17T16:46:20.633Z,12.35
2022-10-17T16:48:50.459Z,12.50
2022-10-17T16:51:18.899Z,12.38
2022-10-17T16:53:45.624Z,12.05
2022-10-17T16:56:15.815Z,12.77
2022-10-17T16:58:47.018Z,12.80
2022-10-17T17:01:15.613Z,12.93
2022-10-17T17:06:14.375Z,10.37
2022-10-17T17:08:42.528Z,12.00
2022-10-17T17:11:10.863Z,11.95
2022-10-17T17:13:37.730Z,11.90
2022-10-17T17:16:08.283Z,11.48
2022-10-17T17:18:36.047Z,11.60
2022-10-17T17:21:05.680Z,11.33
2022-10-17T17:23:35.038Z,11.43
2022-10-17T17:26:04.600Z,12.38
2022-10-17T17:28:32.362Z,11.63
2022-10-17T17:30:59.231Z,12.47
2022-10-17T17:33:29.945Z,12.52
2022-10-17T17:35:58.055Z,12.30
2022-10-17T17:38:24.878Z,12.35
2022-10-17T17:40:51.822Z,13.10
2022-10-17T17:43:18.650Z,12.40
2022-10-17T17:45:45.307Z,11.32
2022-10-17T17:48:12.460Z,12.18
2022-10-17T17:50:41.978Z,11.95
2022-10-17T17:53:14.644Z,12.15
2022-10-17T17:55:41.487Z,11.75
2022-10-17T17:58:08.466Z,12.23
2022-10-17T18:00:35.946Z,11.93
2022-10-17T18:03:02.802Z,11.80
2022-10-17T18:05:30.587Z,12.13
2022-10-17T18:07:58.946Z,12.40
2022-10-17T18:10:25.578Z,12.55
2022-10-17T18:12:52.338Z,12.50
2022-10-17T18:15:19.084Z,11.95
2022-10-17T18:17:45.810Z,11.73
2022-10-17T18:20:12.634Z,12.32
2022-10-17T18:22:39.955Z,12.20
2022-10-17T18:25:09.053Z,11.70
2022-10-17T18:27:35.660Z,12.70
2022-10-17T18:30:02.306Z,12.73
2022-10-17T18:32:33.365Z,12.80
2022-10-17T18:35:00.336Z,12.30
2022-10-17T18:37:27.019Z,13.07
2022-10-17T18:39:55.839Z,13.23
2022-10-17T18:42:30.060Z,11.98
2022-10-17T18:45:00.504Z,13.48
2022-10-17T18:47:27.318Z,13.73
2022-10-17T18:49:54.171Z,13.73
2022-10-17T18:52:20.863Z,13.35
2022-10-17T18:54:47.536Z,13.25
2022-10-17T18:57:14.161Z,13.10
2022-10-17T18:59:42.159Z,13.32
2022-10-17T19:02:12.901Z,13.25
2022-10-17T19:04:40.261Z,12.40
2022-10-17T19:07:06.882Z,14.05
2022-10-17T19:09:33.603Z,14.35
2022-10-17T19:12:00.428Z,14.20
2022-10-17T19:14:28.653Z,13.57
2022-10-17T19:16:57.536Z,14.00
2022-10-17T19:19:25.935Z,13.60
2022-10-17T19:21:52.941Z,13.57
2022-10-17T19:24:21.527Z,13.98
2022-10-17T19:29:18.238Z,11.98
2022-10-17T19:31:46.062Z,12.35
2022-10-17T19:34:15.231Z,12.43
2022-10-17T19:36:42.254Z,12.60
2022-10-17T19:39:12.196Z,13.68
2022-10-17T19:41:40.571Z,13.00
2022-10-17T19:44:07.186Z,12.88
2022-10-17T19:46:39.359Z,12.77
2022-10-17T19:49:06.819Z,13.55
2022-10-17T19:51:34.863Z,12.25
2022-10-17T19:54:01.783Z,13.00
2022-10-17T19:56:30.377Z,13.02
2022-10-17T20:01:26.407Z,10.35
2022-10-17T20:06:24.986Z,10.63
2022-10-17T20:08:53.266Z,11.23
2022-10-17T20:11:22.563Z,12.70
2022-10-17T20:13:49.173Z,11.95
2022-10-17T20:16:17.851Z,12.35
2022-10-17T20:21:14.176Z,10.60
2022-10-17T20:23:41.750Z,11.77
2022-10-17T20:26:25.779Z,11.90
2022-10-17T20:29:01.153Z,11.77
2022-10-17T20:31:28.086Z,11.67
2022-10-17T20:33:55.713Z,11.30
2022-10-17T20:36:23.989Z,12.23
2022-10-17T20:38:53.495Z,11.85
2022-10-17T20:41:22.352Z,11.80
2022-10-17T20:43:51.578Z,11.90
2022-10-17T20:46:34.928Z,12.32
2022-10-17T20:49:03.657Z,12.43
2022-10-17T20:51:33.339Z,11.80
2022-10-17T20:54:00.045Z,11.55
2022-10-17T20:56:30.417Z,11.52
2022-10-17T20:58:59.183Z,11.93
2022-10-17T21:01:26.909Z,12.30
2022-10-17T21:03:53.698Z,12.67
2022-10-17T21:06:21.307Z,14.55
2022-10-17T21:08:49.234Z,14.23
2022-10-17T21:11:18.077Z,13.95
2022-10-17T21:13:47.503Z,14.57
2022-10-17T21:16:17.467Z,14.88
2022-10-17T21:18:45.095Z,15.55
2022-10-17T21:21:13.506Z,16.38
2022-10-17T21:23:41.863Z,16.90
2022-10-17T21:26:09.880Z,15.73
2022-10-17T21:28:38.442Z,15.63
2022-10-17T21:33:51.543Z,13.75
2022-10-17T21:38:47.355Z,14.15
2022-10-17T21:41:16.289Z,14.23
2022-10-17T21:43:43.750Z,15.60
2022-10-17T21:46:14.469Z,15.10
2022-10-17T21:48:41.893Z,15.23
2022-10-17T21:51:09.970Z,15.00
2022-10-17T21:53:37.045Z,15.10
2022-10-17T21:56:05.334Z,14.77
2022-10-17T21:58:32.572Z,14.48
2022-10-17T22:01:07.757Z,14.13
2022-10-17T22:03:36.813Z,14.95
2022-10-17T22:06:13.055Z,14.20
2022-10-17T22:11:20.802Z,14.38
2022-10-17T22:16:16.288Z,12.35
2022-10-17T22:18:44.272Z,13.82
2022-10-17T22:21:16.588Z,13.88
2022-10-17T22:23:44.968Z,14.40
2022-10-17T22:26:12.295Z,13.88
2022-10-17T22:28:41.073Z,13.63
2022-10-17T22:31:08.525Z,12.45
2022-10-17T22:33:37.144Z,12.98
2022-10-17T22:37:15.475Z,13.73
2022-10-17T22:39:42.303Z,13.52
2022-10-17T22:42:09.025Z,13.63
2022-10-17T22:44:35.983Z,14.15
2022-10-17T22:47:02.586Z,14.23
2022-10-17T22:49:29.189Z,14.18
2022-10-17T22:51:55.775Z,13.35
2022-10-17T22:54:24.017Z,14.23
2022-10-17T22:56:50.625Z,13.65
2022-10-17T22:59:17.470Z,13.77
2022-10-17T23:01:44.148Z,13.50
2022-10-17T23:04:10.852Z,15.05
2022-10-17T23:06:37.454Z,14.88
2022-10-17T23:09:04.564Z,14.88
2022-10-17T23:11:32.518Z,15.45
2022-10-17T23:13:59.165Z,14.23
2022-10-17T23:16:25.796Z,14.20
2022-10-17T23:18:52.944Z,14.13
2022-10-17T23:21:19.600Z,13.45
2022-10-17T23:23:46.336Z,14.10
2022-10-17T23:26:14.393Z,14.70
2022-10-17T23:28:43.196Z,15.13
2022-10-17T23:31:12.692Z,13.98
2022-10-17T23:33:41.382Z,14.25
2022-10-17T23:36:09.518Z,14.23
2022-10-17T23:38:36.294Z,14.07
2022-10-17T23:41:02.922Z,15.50
2022-10-17T23:43:31.740Z,13.77
2022-10-17T23:46:00.140Z,14.38
2022-10-17T23:48:26.955Z,14.93
2022-10-17T23:50:54.091Z,14.90
2022-10-17T23:53:21.263Z,15.00
2022-10-17T23:55:47.848Z,14.90
2022-10-17T23:58:14.882Z,15.13
